Time;durP1;ratioP1;P1;durP2;ratioP2;P2;SDS_P1;SDS_P2;PMS_P1;PMS_P2;Temp;Humidity;BMP_temperature;BMP_pressure;BME280_temperature;BME280_humidity;BME280_pressure;Samples;Min_cycle;Max_cycle;Signal;HPM_P1;HPM_P2
2021/06/20 00:01:49;;;;;;;9.43;8.30;;;;;;;25.14;54.06;99080.84;5032698;28;20061;-82
2021/06/20 00:04:16;;;;;;;9.73;8.40;;;;;;;25.11;54.06;99087.47;5032261;28;20115;-83
2021/06/20 00:06:49;;;;;;;9.15;8.20;;;;;;;25.09;54.97;99091.41;5032569;28;20053;-83
2021/06/20 00:09:16;;;;;;;;;;;;;;;25.07;52.52;99079.97;5032951;28;20045;-83
2021/06/20 00:11:45;;;;;;;9.73;7.45;;;;;;;25.10;54.30;99066.13;5031817;28;19921;-83
2021/06/20 00:14:12;;;;;;;13.23;8.18;;;;;;;25.06;54.21;99051.41;5032104;28;20057;-82
2021/06/20 00:16:40;;;;;;;12.40;8.65;;;;;;;25.03;54.74;99031.09;5032325;28;20053;-83
2021/06/20 00:19:07;;;;;;;11.52;8.07;;;;;;;25.01;54.60;99022.41;5032085;28;20099;-82
2021/06/20 00:21:35;;;;;;;8.35;7.55;;;;;;;24.98;54.80;99023.59;5032151;28;20473;-83
2021/06/20 00:24:03;;;;;;;10.23;8.38;;;;;;;24.98;55.06;99038.94;5031777;28;20084;-83
2021/06/20 00:26:30;;;;;;;8.93;7.75;;;;;;;24.96;55.39;99027.53;5032109;28;20053;-83
2021/06/20 00:28:57;;;;;;;11.80;7.43;;;;;;;24.94;55.19;99032.31;5031674;28;20067;-82
2021/06/20 00:31:23;;;;;;;9.90;8.38;;;;;;;24.93;55.67;99025.25;5032007;28;20049;-82
2021/06/20 00:33:50;;;;;;;9.38;8.25;;;;;;;24.91;55.71;99025.47;5030543;28;20107;-83
2021/06/20 00:36:16;;;;;;;11.50;8.48;;;;;;;24.89;55.73;99032.88;5031994;28;20050;-82
2021/06/20 00:38:43;;;;;;;10.38;8.55;;;;;;;24.88;55.95;99033.94;5031950;28;20053;-82
2021/06/20 00:41:10;;;;;;;10.65;8.23;;;;;;;24.85;56.00;99035.16;5032229;28;20049;-84
2021/06/20 00:43:36;;;;;;;11.98;8.45;;;;;;;24.84;56.42;99052.34;5031648;28;20058;-83
2021/06/20 00:46:05;;;;;;;13.45;8.68;;;;;;;24.83;56.59;99063.28;5031607;28;20507;-82
2021/06/20 00:48:32;;;;;;;8.82;7.90;;;;;;;24.82;56.36;99078.59;5031835;28;20056;-83
2021/06/20 00:50:58;;;;;;;10.13;7.90;;;;;;;24.82;56.54;99097.41;5031729;28;20084;-82
2021/06/20 00:53:25;;;;;;;11.35;9.05;;;;;;;24.82;56.64;99105.50;5031519;28;20049;-82
2021/06/20 00:55:52;;;;;;;9.88;8.68;;;;;;;24.79;56.54;99113.97;5031924;28;20111;-84
2021/06/20 00:58:21;;;;;;;9.77;8.07;;;;;;;24.72;56.70;99121.16;5030790;28;20057;-83
2021/06/20 01:00:48;;;;;;;12.07;8.52;;;;;;;24.67;57.18;99124.44;5031600;28;20491;-82
2021/06/20 01:03:15;;;;;;;10.68;9.57;;;;;;;24.62;57.28;99116.13;5031500;28;20057;-83
2021/06/20 01:05:45;;;;;;;11.13;9.73;;;;;;;24.56;57.51;99116.91;5031189;28;20049;-82
2021/06/20 01:08:12;;;;;;;10.65;9.07;;;;;;;24.51;57.33;99120.19;5031932;28;20049;-83
2021/06/20 01:10:39;;;;;;;13.00;10.00;;;;;;;24.47;57.88;99092.00;5030486;28;20053;-83
2021/06/20 01:13:09;;;;;;;12.48;11.02;;;;;;;24.43;57.67;99064.69;5031514;28;20494;-83
2021/06/20 01:15:37;;;;;;;13.77;11.20;;;;;;;24.40;57.54;99058.88;5031331;28;20103;-83
2021/06/20 01:18:05;;;;;;;12.48;10.00;;;;;;;24.35;57.71;99051.38;5030269;28;20072;-82
2021/06/20 01:20:31;;;;;;;14.45;10.63;;;;;;;24.31;58.08;99050.94;5031492;28;20073;-83
2021/06/20 01:22:58;;;;;;;13.40;10.10;;;;;;;24.29;58.36;99058.34;5030034;28;20060;-82
2021/06/20 01:25:28;;;;;;;13.38;11.23;;;;;;;24.26;58.70;99072.19;5034661;28;20049;-83
2021/06/20 01:28:00;;;;;;;13.35;11.70;;;;;;;24.24;59.40;99141.47;5033867;28;20056;-83
2021/06/20 01:30:32;;;;;;;12.60;11.40;;;;;;;24.24;59.40;99183.66;5035037;28;20052;-82
2021/06/20 01:33:05;;;;;;;12.70;11.45;;;;;;;24.25;59.27;99156.56;5035336;28;20136;-83
2021/06/20 01:35:32;;;;;;;19.30;11.30;;;;;;;24.26;58.97;99149.34;5034001;28;20103;-82
2021/06/20 01:38:03;;;;;;;14.13;11.63;;;;;;;24.22;59.52;99135.44;5034014;28;20115;-82
2021/06/20 01:40:30;;;;;;;12.73;11.43;;;;;;;24.23;58.95;99139.81;5035138;28;20045;-83
2021/06/20 01:42:57;;;;;;;12.00;10.80;;;;;;;24.23;58.57;99117.47;5035113;28;20053;-82
2021/06/20 01:45:26;;;;;;;12.70;10.68;;;;;;;24.23;59.25;99102.16;5035085;28;20050;-82
2021/06/20 01:47:55;;;;;;;12.80;11.60;;;;;;;24.24;59.29;99062.66;5035291;28;20049;-82
2021/06/20 01:50:22;;;;;;;11.93;10.80;;;;;;;24.25;59.15;99032.88;5034685;28;20053;-82
2021/06/20 01:53:17;;;;;;;12.88;11.38;;;;;;;24.23;59.80;98956.97;5035067;28;20454;-82
2021/06/20 01:55:46;;;;;;;12.90;11.52;;;;;;;24.26;59.39;98902.75;5034410;28;20054;-83
2021/06/20 01:58:15;;;;;;;11.80;10.68;;;;;;;24.23;59.40;98908.56;5049841;28;20054;-83
2021/06/20 02:00:44;;;;;;;14.05;11.85;;;;;;;24.19;59.15;98937.69;5034367;28;20053;-83
2021/06/20 02:03:14;;;;;;;14.40;12.90;;;;;;;24.16;59.43;98946.16;5034582;28;20103;-82
2021/06/20 02:05:43;;;;;;;13.35;11.63;;;;;;;24.13;59.63;98946.56;5034222;28;20059;-83
2021/06/20 02:08:11;;;;;;;13.07;11.80;;;;;;;24.07;59.71;98945.44;5014623;28;20053;-82
2021/06/20 02:10:41;;;;;;;12.93;11.35;;;;;;;24.03;60.53;98976.44;5014820;28;20053;-82
2021/06/20 02:13:08;;;;;;;12.70;11.60;;;;;;;24.01;59.86;98997.31;5014594;28;20053;-83
2021/06/20 02:15:35;;;;;;;13.20;11.38;;;;;;;23.99;60.13;98985.91;5014505;28;20054;-83
2021/06/20 02:18:01;;;;;;;11.27;10.15;;;;;;;23.96;60.08;98970.19;5014701;28;20050;-83
2021/06/20 02:20:28;;;;;;;11.77;10.57;;;;;;;23.93;60.12;98943.69;5013857;28;20467;-82
2021/06/20 02:22:55;;;;;;;11.80;10.43;;;;;;;23.89;60.13;98931.66;5013495;28;20057;-82
2021/06/20 02:25:23;;;;;;;10.63;9.73;;;;;;;23.84;60.37;98921.50;5014358;28;20107;-83
2021/06/20 02:27:53;;;;;;;12.25;10.90;;;;;;;23.78;60.42;98911.53;5014577;28;20100;-83
2021/06/20 02:30:20;;;;;;;12.18;11.02;;;;;;;23.73;60.60;98890.63;5014678;28;20645;-82
2021/06/20 02:32:48;;;;;;;12.00;10.80;;;;;;;23.68;60.67;98872.41;5014483;28;20104;-82
2021/06/20 02:35:16;;;;;;;11.30;10.30;;;;;;;23.63;60.90;98872.13;5013638;28;20058;-82
2021/06/20 02:37:45;;;;;;;11.73;10.73;;;;;;;23.60;60.83;98877.09;5014435;28;20509;-82
2021/06/20 02:40:13;;;;;;;11.73;10.73;;;;;;;23.56;61.12;98868.59;5027013;28;20045;-83
2021/06/20 02:42:40;;;;;;;13.05;11.55;;;;;;;23.54;61.56;98863.41;5034118;28;20053;-82
2021/06/20 02:45:10;;;;;;;12.20;11.02;;;;;;;23.53;61.58;98856.38;5033504;28;20585;-82
2021/06/20 02:47:37;;;;;;;12.15;11.10;;;;;;;23.53;61.53;98850.16;5034102;28;20057;-82
2021/06/20 02:50:06;;;;;;;13.45;10.98;;;;;;;23.50;61.91;98846.03;5033568;28;20045;-82
2021/06/20 02:52:33;;;;;;;11.98;10.80;;;;;;;23.50;62.04;98837.97;5033948;28;20057;-82
2021/06/20 02:55:01;;;;;;;11.85;10.30;;;;;;;23.49;62.28;98833.63;5033361;28;20049;-83
2021/06/20 02:57:30;;;;;;;9.73;8.82;;;;;;;23.50;62.21;98805.72;5033788;28;20053;-81
2021/06/20 02:59:58;;;;;;;8.88;8.07;;;;;;;23.50;62.20;98818.31;5033760;28;20708;-82
2021/06/20 03:02:25;;;;;;;9.73;8.63;;;;;;;23.51;62.38;98820.00;5033513;28;20057;-83
2021/06/20 03:04:52;;;;;;;8.70;7.65;;;;;;;23.50;62.82;98819.16;5033451;28;20045;-81
2021/06/20 03:07:20;;;;;;;7.65;6.88;;;;;;;23.51;62.60;98820.81;5034077;28;20107;-82
2021/06/20 03:09:46;;;;;;;7.45;4.95;;;;;;;23.51;62.32;98809.25;5033532;28;20061;-82
2021/06/20 03:12:13;;;;;;;5.63;4.32;;;;;;;23.53;62.29;98801.81;5033360;28;20103;-83
2021/06/20 03:14:42;;;;;;;5.60;4.05;;;;;;;23.53;62.56;98804.50;5032881;28;20570;-83
2021/06/20 03:17:10;;;;;;;5.65;3.38;;;;;;;23.54;62.29;98816.91;5033509;28;20080;-82
2021/06/20 03:19:38;;;;;;;4.50;2.88;;;;;;;23.55;62.34;98826.66;5033416;28;20045;-83
2021/06/20 03:22:05;;;;;;;5.15;2.80;;;;;;;23.54;62.37;98833.88;5033299;28;20061;-81
2021/06/20 03:24:38;;;;;;;4.28;3.20;;;;;;;23.56;62.07;98847.91;5033017;28;20526;-81
2021/06/20 03:27:05;;;;;;;4.32;2.90;;;;;;;23.56;62.16;98837.16;5033248;28;20502;-83
2021/06/20 03:29:32;;;;;;;5.32;3.40;;;;;;;23.55;61.85;98840.88;5031462;28;20557;-83
2021/06/20 03:31:59;;;;;;;5.10;3.05;;;;;;;23.56;61.88;98839.03;5032967;28;20050;-82
2021/06/20 03:34:27;;;;;;;7.45;3.30;;;;;;;23.55;61.75;98838.19;5032459;28;20057;-82
2021/06/20 03:36:53;;;;;;;5.38;3.60;;;;;;;23.54;62.14;98839.22;5033100;28;20053;-82
2021/06/20 03:39:20;;;;;;;7.60;3.10;;;;;;;23.55;62.26;98835.50;5033222;28;20053;-83
2021/06/20 03:41:47;;;;;;;5.05;2.10;;;;;;;23.55;61.84;98824.78;5031728;28;20103;-82
2021/06/20 03:44:13;;;;;;;7.03;2.10;;;;;;;23.58;61.72;98825.41;5032268;28;20495;-83
2021/06/20 03:46:40;;;;;;;6.57;1.95;;;;;;;23.58;61.77;98830.78;5032117;28;20537;-82
2021/06/20 03:49:07;;;;;;;6.25;2.20;;;;;;;23.56;61.79;98823.75;5032525;28;20057;-82
2021/06/20 03:51:34;;;;;;;3.83;1.92;;;;;;;23.56;61.76;98828.31;5032702;28;20437;-82
2021/06/20 03:54:01;;;;;;;9.20;1.77;;;;;;;23.56;61.76;98837.16;5032554;28;20419;-83
2021/06/20 03:56:28;;;;;;;5.10;1.88;;;;;;;23.56;61.91;98830.97;5032383;28;20053;-83
2021/06/20 03:58:55;;;;;;;3.50;1.95;;;;;;;23.54;61.99;98847.28;5032594;28;20057;-82
2021/06/20 04:01:22;;;;;;;3.58;2.10;;;;;;;23.53;62.12;98851.00;5032218;28;20103;-82
2021/06/20 04:03:48;;;;;;;5.00;2.25;;;;;;;23.52;62.06;98845.81;5032501;28;20127;-82
2021/06/20 04:06:15;;;;;;;8.23;2.40;;;;;;;23.52;62.11;98851.19;5032599;28;20057;-82
2021/06/20 04:08:42;;;;;;;4.18;2.42;;;;;;;23.51;62.28;98839.63;5032159;28;20115;-83
2021/06/20 04:11:08;;;;;;;5.75;2.28;;;;;;;23.52;62.38;98845.81;5032479;28;20387;-82
2021/06/20 04:13:35;;;;;;;4.03;2.53;;;;;;;23.51;62.03;98853.03;5030781;28;20458;-82
2021/06/20 04:16:02;;;;;;;4.88;2.63;;;;;;;23.52;62.69;98868.13;5032213;28;20049;-82
2021/06/20 04:18:28;;;;;;;3.17;2.00;;;;;;;23.53;62.55;98866.28;5032421;28;20140;-82
2021/06/20 04:20:55;;;;;;;3.65;2.35;;;;;;;23.52;62.64;98886.94;5032297;28;20053;-82
2021/06/20 04:23:22;;;;;;;8.05;2.65;;;;;;;23.51;62.30;98876.41;5032160;28;20396;-82
2021/06/20 04:25:48;;;;;;;4.07;2.22;;;;;;;23.50;62.56;98885.47;5032152;28;20494;-82
2021/06/20 04:28:21;;;;;;;6.88;2.50;;;;;;;23.48;62.61;98877.63;5032285;28;20072;-83
2021/06/20 04:30:53;;;;;;;4.00;2.33;;;;;;;23.49;62.76;98883.81;5032136;28;20052;-83
2021/06/20 04:33:21;;;;;;;3.67;2.13;;;;;;;23.49;62.75;98892.72;5032110;28;20159;-82
2021/06/20 04:35:47;;;;;;;3.75;2.33;;;;;;;23.51;62.73;98890.66;5031747;28;20284;-83
2021/06/20 04:38:15;;;;;;;5.22;2.22;;;;;;;23.52;63.02;98892.31;5031936;28;20510;-82
2021/06/20 04:40:42;;;;;;;5.55;2.05;;;;;;;23.53;62.80;98893.16;5032082;28;20107;-83
2021/06/20 04:43:12;;;;;;;6.53;2.20;;;;;;;23.54;62.92;98892.13;5032077;28;20057;-82
2021/06/20 04:45:39;;;;;;;5.82;2.28;;;;;;;23.55;63.12;98888.44;5030320;28;20107;-82
2021/06/20 04:48:06;;;;;;;4.18;2.20;;;;;;;23.56;63.41;98888.22;5032021;28;20053;-82
2021/06/20 04:50:32;;;;;;;7.47;2.30;;;;;;;23.56;63.06;98893.56;5031686;28;20041;-83
2021/06/20 04:52:59;;;;;;;7.80;2.40;;;;;;;23.56;63.14;98900.81;5031803;28;20050;-82
2021/06/20 04:55:25;;;;;;;4.22;2.15;;;;;;;23.55;62.91;98904.53;5031466;28;20503;-82
2021/06/20 04:57:52;;;;;;;3.83;2.20;;;;;;;23.53;63.17;98893.16;5032083;28;20111;-83
2021/06/20 05:00:19;;;;;;;5.22;2.10;;;;;;;23.49;63.14;98906.13;5035836;28;20052;-82
2021/06/20 05:02:47;;;;;;;6.72;2.40;;;;;;;23.47;63.57;98902.00;5034400;28;20065;-82
2021/06/20 05:05:13;;;;;;;8.77;2.58;;;;;;;23.46;63.21;98900.31;5035857;28;20103;-83
2021/06/20 05:07:41;;;;;;;5.25;2.47;;;;;;;23.44;63.57;98900.53;5034244;28;20089;-83
2021/06/20 05:10:08;;;;;;;6.10;2.50;;;;;;;23.41;63.87;98907.09;5035434;28;20103;-82
2021/06/20 05:12:35;;;;;;;7.40;2.60;;;;;;;23.41;63.96;98892.84;5034437;28;20049;-82
2021/06/20 05:15:02;;;;;;;4.95;2.58;;;;;;;23.37;63.76;98905.84;5035337;28;20056;-83
2021/06/20 05:17:29;;;;;;;5.50;2.72;;;;;;;23.34;64.05;98913.41;5035663;28;20054;-82
2021/06/20 05:19:56;;;;;;;5.80;3.38;;;;;;;23.32;63.86;98910.09;5035267;28;20123;-82
2021/06/20 05:22:23;;;;;;;7.22;3.60;;;;;;;23.29;64.09;98914.00;5035589;28;20050;-82
2021/06/20 05:24:49;;;;;;;6.88;3.58;;;;;;;23.26;64.14;98923.25;5035027;28;20100;-83
2021/06/20 05:27:16;;;;;;;7.97;3.30;;;;;;;23.26;64.13;98911.69;5035448;28;20103;-84
2021/06/20 05:29:43;;;;;;;8.40;3.60;;;;;;;23.24;64.35;98911.03;5034290;28;20107;-83
2021/06/20 05:32:09;;;;;;;6.05;3.83;;;;;;;23.22;64.53;98911.25;5035346;28;20057;-83
2021/06/20 05:34:36;;;;;;;8.75;4.00;;;;;;;23.20;64.44;98904.38;5034765;28;20056;-83
2021/06/20 05:37:04;;;;;;;8.45;3.95;;;;;;;23.19;64.41;98903.56;5034010;28;20057;-82
2021/06/20 05:39:30;;;;;;;6.45;4.03;;;;;;;23.17;64.64;98905.59;5036440;28;20049;-82
2021/06/20 05:41:57;;;;;;;7.18;4.40;;;;;;;23.17;64.68;98906.44;5036914;28;20049;-82
2021/06/20 05:44:24;;;;;;;4.72;4.07;;;;;;;23.19;65.00;98911.59;5034785;28;20104;-82
2021/06/20 05:46:50;;;;;;;8.02;4.50;;;;;;;23.22;64.94;98924.66;5035507;28;20088;-82
2021/06/20 05:49:17;;;;;;;8.90;4.72;;;;;;;23.26;65.25;98922.41;5033941;28;20045;-82
2021/06/20 05:51:43;;;;;;;9.00;5.18;;;;;;;23.30;64.87;98924.50;5014060;28;20057;-82
2021/06/20 05:54:10;;;;;;;6.88;5.03;;;;;;;23.36;64.88;98930.19;5012659;28;20104;-82
2021/06/20 05:56:37;;;;;;;12.48;5.57;;;;;;;23.40;64.67;98931.47;5013828;28;20054;-82
2021/06/20 05:59:05;;;;;;;14.15;5.93;;;;;;;23.43;64.47;98939.13;5014070;28;20053;-82
2021/06/20 06:01:31;;;;;;;8.15;5.20;;;;;;;23.44;64.51;98938.13;5014101;28;20084;-82
2021/06/20 06:03:58;;;;;;;13.50;5.78;;;;;;;23.47;64.33;98947.66;5013869;28;20100;-82
2021/06/20 06:06:25;;;;;;;9.38;5.97;;;;;;;23.48;64.47;98949.31;5020359;28;20442;-82
2021/06/20 06:08:51;;;;;;;11.55;6.05;;;;;;;23.47;64.16;98950.34;5034854;28;20060;-82
2021/06/20 06:11:18;;;;;;;7.55;6.22;;;;;;;23.47;64.01;98956.50;5033937;28;20041;-82
2021/06/20 06:13:49;;;;;;;10.52;6.40;;;;;;;23.47;64.35;98964.56;5034430;28;20057;-82
2021/06/20 06:16:16;;;;;;;9.93;6.85;;;;;;;23.47;63.62;98969.94;5034361;28;20053;-82
2021/06/20 06:18:43;;;;;;;11.15;6.63;;;;;;;23.46;63.96;98970.13;5034546;28;20057;-82
2021/06/20 06:21:09;;;;;;;11.88;7.10;;;;;;;23.46;64.07;98981.72;5034422;28;20160;-83
2021/06/20 06:23:36;;;;;;;9.35;6.88;;;;;;;23.47;63.99;98982.56;5034342;28;20064;-83
2021/06/20 06:26:03;;;;;;;10.50;7.53;;;;;;;23.45;63.58;98974.69;5034070;28;20396;-81
2021/06/20 06:28:29;;;;;;;10.30;7.45;;;;;;;23.45;63.57;98982.75;5034323;28;20053;-83
2021/06/20 06:30:56;;;;;;;8.73;7.20;;;;;;;23.44;63.98;98978.41;5034492;28;20471;-83
2021/06/20 06:33:23;;;;;;;12.57;7.60;;;;;;;23.43;63.92;98990.16;5034383;28;20049;-82
2021/06/20 06:35:49;;;;;;;13.57;7.68;;;;;;;23.44;64.00;98986.47;5034213;28;20046;-84
2021/06/20 06:38:19;;;;;;;10.82;7.93;;;;;;;23.44;63.67;98994.53;5034477;28;20052;-83
2021/06/20 06:40:46;;;;;;;11.60;7.78;;;;;;;23.46;63.70;98999.69;5049262;28;20054;-83
2021/06/20 06:43:12;;;;;;;11.80;8.07;;;;;;;23.45;64.04;98998.88;5032516;28;20080;-84
2021/06/20 06:45:39;;;;;;;11.35;7.95;;;;;;;23.46;63.67;98991.63;5034019;28;20064;-83
2021/06/20 06:48:06;;;;;;;12.90;8.35;;;;;;;23.46;63.48;98989.78;5033974;28;20060;-84
2021/06/20 06:50:33;;;;;;;11.68;7.82;;;;;;;23.47;63.21;98994.13;5049118;28;20446;-83
2021/06/20 06:52:59;;;;;;;12.95;7.20;;;;;;;23.48;63.60;98998.50;5032630;28;20064;-83
2021/06/20 06:55:26;;;;;;;13.25;7.80;;;;;;;23.50;63.38;98999.13;5032167;28;20065;-84
2021/06/20 06:57:52;;;;;;;12.32;8.20;;;;;;;23.51;63.49;98994.59;5032489;28;20076;-83
2021/06/20 07:00:20;;;;;;;10.20;7.78;;;;;;;23.53;63.42;99006.81;5032293;28;20095;-83
2021/06/20 07:02:46;;;;;;;10.80;7.40;;;;;;;23.54;62.70;99013.00;5032491;28;20080;-83
2021/06/20 07:05:13;;;;;;;12.07;8.07;;;;;;;23.55;63.28;99015.50;5031830;28;20057;-83
2021/06/20 07:07:40;;;;;;;11.95;8.05;;;;;;;23.58;62.88;99016.94;5032457;28;20065;-83
2021/06/20 07:10:07;;;;;;;10.02;7.25;;;;;;;23.61;63.28;99021.94;5031978;28;20075;-83
2021/06/20 07:12:34;;;;;;;8.55;7.32;;;;;;;23.66;63.31;99024.09;5033236;28;20045;-84
2021/06/20 07:15:04;;;;;;;9.18;7.88;;;;;;;23.71;63.57;99012.75;5032947;28;20086;-82
2021/06/20 07:17:32;;;;;;;9.82;7.15;;;;;;;23.78;63.55;99016.34;5032393;28;20107;-84
2021/06/20 07:19:59;;;;;;;10.30;7.28;;;;;;;23.88;63.68;99026.75;5033291;28;20053;-83
2021/06/20 07:22:26;;;;;;;11.23;7.80;;;;;;;23.97;62.87;99025.59;5030812;28;20057;-83
2021/06/20 07:24:53;;;;;;;9.32;7.03;;;;;;;24.07;63.13;99044.91;5032414;28;20494;-83
2021/06/20 07:27:19;;;;;;;9.68;7.53;;;;;;;24.19;62.77;99041.72;5033827;28;20499;-83
2021/06/20 07:29:49;;;;;;;10.45;7.80;;;;;;;24.29;62.41;99044.09;5034629;28;20065;-83
2021/06/20 07:32:16;;;;;;;8.85;7.90;;;;;;;24.38;62.01;99050.16;5032708;28;20057;-83
2021/06/20 07:34:43;;;;;;;8.85;7.45;;;;;;;24.47;61.61;99051.66;5031276;28;20404;-83
2021/06/20 07:37:09;;;;;;;10.93;7.43;;;;;;;24.54;60.94;99054.38;5033813;28;20111;-83
2021/06/20 07:39:36;;;;;;;7.82;6.22;;;;;;;24.59;60.65;99054.63;5031379;28;20458;-83
2021/06/20 07:42:03;;;;;;;10.80;6.55;;;;;;;24.64;59.87;99051.34;5033297;28;20442;-84
2021/06/20 07:44:30;;;;;;;8.35;6.50;;;;;;;24.68;59.24;99040.00;5033486;28;20068;-83
2021/06/20 07:46:57;;;;;;;10.43;6.50;;;;;;;24.72;59.65;99040.44;5047618;28;20061;-83
2021/06/20 07:49:23;;;;;;;7.25;6.15;;;;;;;24.74;59.12;99043.75;5033570;28;20046;-83
2021/06/20 07:51:50;;;;;;;7.47;6.15;;;;;;;24.77;58.98;99046.06;5033682;28;20057;-83
2021/06/20 07:54:17;;;;;;;9.27;6.28;;;;;;;24.77;58.52;99048.75;5032330;28;20042;-83
2021/06/20 07:56:43;;;;;;;6.63;5.82;;;;;;;24.76;57.94;99052.47;5031929;28;20061;-83
2021/06/20 07:59:10;;;;;;;6.60;5.97;;;;;;;24.74;58.14;99051.81;5032026;28;20049;-83
2021/06/20 08:01:38;;;;;;;7.25;5.55;;;;;;;24.74;57.56;99059.91;5031423;28;20123;-83
2021/06/20 08:04:05;;;;;;;9.38;6.75;;;;;;;24.74;57.92;99059.91;5032277;28;20128;-83
2021/06/20 08:06:32;;;;;;;8.70;6.07;;;;;;;24.79;57.75;99060.16;5032620;28;20049;-83
2021/06/20 08:08:59;;;;;;;8.75;6.75;;;;;;;24.81;57.82;99068.84;5032754;28;20054;-83
2021/06/20 08:11:26;;;;;;;8.10;6.60;;;;;;;24.85;57.60;99067.47;5030689;28;20556;-82
2021/06/20 08:13:54;;;;;;;8.48;6.35;;;;;;;24.88;57.18;99068.91;5030631;28;20426;-84
2021/06/20 08:16:21;;;;;;;6.68;5.97;;;;;;;24.92;57.35;99072.88;5032444;28;20053;-83
2021/06/20 08:18:47;;;;;;;7.35;6.05;;;;;;;24.97;57.44;99075.78;5030684;28;20053;-84
2021/06/20 08:21:15;;;;;;;7.32;6.45;;;;;;;25.03;57.11;99076.03;5030617;28;20053;-84
2021/06/20 08:23:42;;;;;;;7.68;5.95;;;;;;;25.10;57.31;99079.59;5033635;28;20061;-84
2021/06/20 08:26:09;;;;;;;9.00;6.40;;;;;;;25.15;57.12;99070.94;5032324;28;20045;-83
2021/06/20 08:28:36;;;;;;;7.85;6.55;;;;;;;25.21;57.43;99065.56;5031989;28;20064;-83
2021/06/20 08:31:03;;;;;;;7.65;6.22;;;;;;;25.25;56.97;99055.22;5032548;28;20057;-83
2021/06/20 08:33:30;;;;;;;7.80;5.78;;;;;;;25.31;57.22;99067.06;5031431;28;20057;-82
2021/06/20 08:35:56;;;;;;;6.97;6.28;;;;;;;25.37;57.06;99074.31;5031890;28;20054;-83
2021/06/20 08:38:23;;;;;;;7.55;6.50;;;;;;;25.47;56.82;99071.25;5031781;28;20110;-83
2021/06/20 08:40:50;;;;;;;8.75;5.70;;;;;;;25.55;56.32;99079.16;5031157;28;20114;-84
2021/06/20 08:43:16;;;;;;;7.03;6.22;;;;;;;25.62;56.39;99079.19;5032210;28;20076;-83
2021/06/20 08:45:43;;;;;;;6.40;5.80;;;;;;;25.70;56.16;99072.78;5031656;28;20053;-83
2021/06/20 08:48:12;;;;;;;8.23;6.63;;;;;;;25.73;54.69;99075.06;5031985;28;20055;-82
2021/06/20 08:50:40;;;;;;;8.73;6.57;;;;;;;25.78;54.91;99075.28;5031870;28;20455;-83
2021/06/20 08:53:07;;;;;;;5.93;5.32;;;;;;;25.81;54.95;99080.28;5031808;28;20103;-83
2021/06/20 08:55:34;;;;;;;6.80;5.68;;;;;;;25.86;54.99;99076.94;5030565;28;20106;-82
2021/06/20 08:58:25;;;;;;;7.72;5.80;;;;;;;25.86;54.20;99080.50;5032162;28;20049;-83
2021/06/20 09:00:52;;;;;;;7.05;5.28;;;;;;;25.93;54.40;99074.28;5046567;28;20407;-83
2021/06/20 09:03:19;;;;;;;6.70;5.00;;;;;;;25.97;54.39;99086.31;5031785;28;20053;-83
2021/06/20 09:06:03;;;;;;;5.25;4.72;;;;;;;25.98;54.41;99086.09;5030301;28;20140;-83
2021/06/20 09:08:30;;;;;;;7.35;4.53;;;;;;;26.11;53.71;99079.06;5030608;28;20103;-82
2021/06/20 09:10:58;;;;;;;5.85;4.78;;;;;;;26.19;54.18;99075.31;5031792;28;20064;-83
2021/06/20 09:13:35;;;;;;;5.35;4.85;;;;;;;26.24;52.79;99080.97;5031536;28;20062;-83
2021/06/20 09:16:05;;;;;;;6.25;4.82;;;;;;;26.36;52.35;99075.78;5030012;28;20140;-83
2021/06/20 09:18:35;;;;;;;6.82;4.55;;;;;;;26.45;51.69;99076.38;5031453;28;20064;-84
2021/06/20 09:21:09;;;;;;;4.72;4.10;;;;;;;26.48;52.01;99078.69;5031337;28;20049;-83
2021/06/20 09:23:40;;;;;;;6.75;4.28;;;;;;;26.55;52.22;99074.13;5030549;28;20064;-83
2021/06/20 09:26:07;;;;;;;5.57;4.05;;;;;;;26.63;52.28;99100.03;5046746;28;20049;-83
2021/06/20 09:28:36;;;;;;;4.88;3.92;;;;;;;26.68;51.36;99094.84;5046533;28;20053;-82
2021/06/20 09:31:04;;;;;;;5.53;4.05;;;;;;;26.74;51.01;99088.63;5046833;28;20053;-84
2021/06/20 09:33:32;;;;;;;5.47;3.72;;;;;;;26.81;51.12;99102.09;5031364;28;20058;-84
2021/06/20 09:36:00;;;;;;;7.25;4.20;;;;;;;26.86;51.39;99102.28;5031560;28;20053;-83
2021/06/20 09:38:31;;;;;;;6.57;4.10;;;;;;;26.91;50.41;99101.69;5030287;28;20050;-83
2021/06/20 09:41:05;;;;;;;4.57;3.78;;;;;;;26.96;50.73;99091.09;5030435;28;20490;-84
2021/06/20 09:43:34;;;;;;;4.30;3.63;;;;;;;27.00;49.30;99084.22;5031350;28;20111;-83
2021/06/20 09:46:02;;;;;;;5.72;3.40;;;;;;;27.02;50.05;99092.94;5032264;28;20050;-83
2021/06/20 09:48:32;;;;;;;5.85;3.78;;;;;;;27.03;49.94;99089.19;5035167;28;20057;-84
2021/06/20 09:51:12;;;;;;;4.72;3.47;;;;;;;27.07;50.89;99100.41;5034617;28;20057;-83
2021/06/20 09:53:41;;;;;;;4.88;3.60;;;;;;;27.14;50.72;99097.69;5035038;28;20049;-83
2021/06/20 09:56:10;;;;;;;4.95;3.25;;;;;;;27.17;49.12;99095.38;5035043;28;20064;-84
2021/06/20 09:58:42;;;;;;;3.60;3.13;;;;;;;27.28;49.40;99117.41;5034057;28;20403;-83
2021/06/20 10:01:10;;;;;;;3.53;3.22;;;;;;;27.36;49.37;99106.31;5033391;28;20114;-83
2021/06/20 10:03:37;;;;;;;3.38;3.08;;;;;;;27.45;49.79;99102.34;5050153;28;20053;-84
2021/06/20 10:06:06;;;;;;;4.25;3.30;;;;;;;27.57;50.17;99120.56;5032529;28;20077;-84
2021/06/20 10:08:33;;;;;;;4.50;3.60;;;;;;;27.68;49.13;99114.53;5033752;28;20050;-83
2021/06/20 10:11:00;;;;;;;6.95;3.20;;;;;;;27.81;48.77;99129.03;5049995;28;20080;-84
2021/06/20 10:13:27;;;;;;;3.40;3.03;;;;;;;27.91;48.38;99121.25;5034591;28;20049;-83
2021/06/20 10:15:57;;;;;;;4.60;2.38;;;;;;;27.95;48.07;99111.66;5034756;28;20058;-84
2021/06/20 10:18:25;;;;;;;2.53;2.17;;;;;;;28.02;47.77;99119.72;5033600;28;20068;-83
2021/06/20 10:20:57;;;;;;;5.18;2.47;;;;;;;28.07;47.95;99121.78;5033353;28;20103;-84
2021/06/20 10:23:24;;;;;;;3.72;2.15;;;;;;;28.18;48.46;99118.38;5033386;28;20498;-83
2021/06/20 10:25:52;;;;;;;2.90;2.50;;;;;;;28.30;49.29;99121.22;5034564;28;20049;-83
2021/06/20 10:28:22;;;;;;;4.22;2.45;;;;;;;28.47;48.56;99136.91;5034564;28;20410;-83
2021/06/20 10:30:49;;;;;;;2.45;2.25;;;;;;;28.61;47.58;99126.81;5033332;28;20053;-83
2021/06/20 10:33:21;;;;;;;3.13;2.50;;;;;;;28.70;46.59;99139.00;5034013;28;20422;-83
2021/06/20 10:36:13;;;;;;;3.85;2.55;;;;;;;28.72;46.21;99138.78;5034339;28;20053;-83
2021/06/20 10:38:43;;;;;;;2.97;2.30;;;;;;;28.74;45.34;99140.22;5033920;28;20061;-83
2021/06/20 10:41:24;;;;;;;3.42;2.00;;;;;;;28.64;45.19;99142.63;5032167;28;20053;-83
2021/06/20 10:43:59;;;;;;;5.15;2.28;;;;;;;28.61;44.89;99152.00;5032797;28;20103;-83
2021/06/20 10:46:27;;;;;;;2.42;2.10;;;;;;;28.63;47.43;99140.13;5033173;28;20053;-83
2021/06/20 10:48:54;;;;;;;5.10;1.95;;;;;;;28.71;47.19;99121.69;5032862;28;20064;-84
2021/06/20 10:51:23;;;;;;;1.70;1.50;;;;;;;28.94;46.79;99127.56;5032746;28;20494;-84
2021/06/20 10:53:50;;;;;;;1.40;1.30;;;;;;;29.26;46.55;99122.81;5032656;28;20057;-84
2021/06/20 10:56:27;;;;;;;1.63;1.52;;;;;;;29.68;45.35;99126.72;5032333;28;20049;-84
2021/06/20 10:58:55;;;;;;;3.53;1.55;;;;;;;30.12;44.60;99126.53;5033878;28;20053;-84
2021/06/20 11:01:26;;;;;;;3.15;1.40;;;;;;;30.44;44.04;99130.84;5033710;28;20053;-83
2021/06/20 11:03:53;;;;;;;2.45;1.60;;;;;;;30.63;43.76;99131.56;5033148;28;20573;-84
2021/06/20 11:06:22;;;;;;;1.80;1.50;;;;;;;30.71;42.51;99149.38;5033462;28;20053;-83
2021/06/20 11:09:04;;;;;;;2.88;1.67;;;;;;;30.72;42.23;99153.78;5033283;28;20506;-84
2021/06/20 11:11:32;;;;;;;;;;;;;;;30.73;44.74;99155.44;5033921;28;20061;-84
2021/06/20 11:13:59;;;;;;;4.35;1.98;;;;;;;30.74;41.22;99150.84;5032472;28;19925;-85
2021/06/20 11:16:40;;;;;;;3.20;1.30;;;;;;;30.61;41.41;99157.31;5033107;28;20074;-85
2021/06/20 11:19:30;;;;;;;3.10;1.77;;;;;;;30.56;43.08;99141.69;5032220;28;20057;-84
2021/06/20 11:22:08;;;;;;;3.17;1.80;;;;;;;30.63;41.97;99156.00;5040586;28;20392;-84
2021/06/20 11:24:36;;;;;;;1.63;1.27;;;;;;;30.74;41.21;99153.53;5033207;28;20057;-83
2021/06/20 11:27:05;;;;;;;1.80;1.38;;;;;;;30.75;41.08;99145.16;5033343;28;20123;-83
2021/06/20 11:29:39;;;;;;;3.47;1.63;;;;;;;30.71;41.41;99141.22;5033184;28;20545;-84
2021/06/20 11:32:06;;;;;;;2.17;1.45;;;;;;;30.79;41.78;99143.63;5031761;28;20458;-84
2021/06/20 11:34:34;;;;;;;2.47;1.70;;;;;;;30.95;41.05;99144.78;5032508;28;20557;-84